createdAt,value
2016-09-14T00:00:37.569Z,1015.96
2016-09-14T00:01:37.597Z,1015.95
2016-09-14T00:02:37.623Z,1015.96
2016-09-14T00:03:37.641Z,1015.93
2016-09-14T00:04:37.668Z,1015.94
2016-09-14T00:05:37.690Z,1015.94
2016-09-14T00:06:37.719Z,1015.92
2016-09-14T00:07:37.737Z,1015.92
2016-09-14T00:08:37.762Z,1015.96
2016-09-14T00:09:37.795Z,1015.97
2016-09-14T00:10:37.815Z,1015.92
2016-09-14T00:11:37.846Z,1015.93
2016-09-14T00:12:37.980Z,1015.94
2016-09-14T00:13:37.888Z,1015.95
2016-09-14T00:14:37.910Z,1015.92
2016-09-14T00:15:37.936Z,1015.93
2016-09-14T00:16:37.971Z,1015.94
2016-09-14T00:17:37.989Z,1015.97
2016-09-14T00:18:38.014Z,1015.96
2016-09-14T00:19:38.037Z,1015.93
2016-09-14T00:20:38.057Z,1015.97
2016-09-14T00:21:38.086Z,1015.93
2016-09-14T00:22:38.109Z,1015.99
2016-09-14T00:23:38.166Z,1015.97
2016-09-14T00:24:38.158Z,1015.97
2016-09-14T00:25:38.237Z,1016.01
2016-09-14T00:26:38.207Z,1015.94
2016-09-14T00:27:38.238Z,1015.97
2016-09-14T00:28:38.255Z,1016
2016-09-14T00:29:38.275Z,1015.98
2016-09-14T00:30:38.305Z,1015.98
2016-09-14T00:31:38.334Z,1015.97
2016-09-14T00:32:38.356Z,1015.95
2016-09-14T00:33:38.388Z,1015.97
2016-09-14T00:34:38.405Z,1015.96
2016-09-14T00:35:38.429Z,1015.98
2016-09-14T00:36:38.455Z,1015.95
2016-09-14T00:37:38.476Z,1016
2016-09-14T00:38:38.513Z,1015.99
2016-09-14T00:39:38.529Z,1015.98
2016-09-14T00:40:38.549Z,1016
2016-09-14T00:41:38.577Z,1016
2016-09-14T00:42:38.603Z,1016
2016-09-14T00:43:38.629Z,1016.01
2016-09-14T00:44:38.652Z,1016.02
2016-09-14T00:45:38.677Z,1016.03
2016-09-14T00:46:38.695Z,1016.01
2016-09-14T00:47:38.725Z,1016.02
2016-09-14T00:48:38.747Z,1016.04
2016-09-14T00:49:38.768Z,1016.01
2016-09-14T00:50:38.794Z,1016.02
2016-09-14T00:51:38.818Z,1016.02
2016-09-14T00:52:38.848Z,1016.02
2016-09-14T00:53:38.993Z,1016.02
2016-09-14T00:54:38.898Z,1016.02
2016-09-14T00:55:38.916Z,1015.98
2016-09-14T00:56:38.940Z,1015.98
2016-09-14T00:57:38.967Z,1015.97
2016-09-14T00:58:38.986Z,1016.02
2016-09-14T00:59:39.018Z,1016.02
2016-09-14T01:00:39.038Z,1016.01
2016-09-14T01:01:39.061Z,1016.01
2016-09-14T01:02:39.087Z,1016.02
2016-09-14T01:03:39.109Z,1016.01
2016-09-14T01:04:39.135Z,1016.04
2016-09-14T01:05:39.161Z,1016.04
2016-09-14T01:06:39.181Z,1016.04
2016-09-14T01:07:39.213Z,1016.06
2016-09-14T01:08:39.230Z,1016.03
2016-09-14T01:09:39.359Z,1016.07
2016-09-14T01:10:39.289Z,1016.06
2016-09-14T01:11:39.314Z,1016.06
2016-09-14T01:12:39.328Z,1016.08
2016-09-14T01:13:39.352Z,1016.1
2016-09-14T01:14:39.377Z,1016.06
2016-09-14T01:15:39.404Z,1016.06
2016-09-14T01:16:39.427Z,1016.06
2016-09-14T01:17:39.454Z,1016.06
2016-09-14T01:18:39.474Z,1016.06
2016-09-14T01:19:39.493Z,1016.06
2016-09-14T01:20:39.625Z,1016.04
2016-09-14T01:21:39.549Z,1016.06
2016-09-14T01:22:39.571Z,1016.04
2016-09-14T01:23:39.597Z,1015.99
2016-09-14T01:24:39.618Z,1016.05
2016-09-14T01:25:39.644Z,1016.05
2016-09-14T01:26:39.664Z,1016.05
2016-09-14T01:27:39.686Z,1016.06
2016-09-14T01:28:39.716Z,1016.09
2016-09-14T01:29:39.733Z,1016.07
2016-09-14T01:30:39.760Z,1016.07
2016-09-14T01:31:39.784Z,1016.1
2016-09-14T01:32:39.813Z,1016.1
2016-09-14T01:33:39.832Z,1016.11
2016-09-14T01:34:39.853Z,1016.12
2016-09-14T01:35:39.890Z,1016.14
2016-09-14T01:36:39.909Z,1016.13
2016-09-14T01:37:39.935Z,1016.16
2016-09-14T01:38:39.954Z,1016.18
2016-09-14T01:39:39.979Z,1016.17
2016-09-14T01:40:40.004Z,1016.17
2016-09-14T01:41:40.024Z,1016.19
2016-09-14T01:42:40.061Z,1016.16
2016-09-14T01:43:40.079Z,1016.18
2016-09-14T01:44:40.107Z,1016.22
2016-09-14T01:45:40.133Z,1016.18
2016-09-14T01:46:40.149Z,1016.18
2016-09-14T01:47:40.172Z,1016.18
2016-09-14T01:48:40.194Z,1016.22
2016-09-14T01:49:40.217Z,1016.23
2016-09-14T01:50:40.245Z,1016.24
2016-09-14T01:51:40.267Z,1016.23
2016-09-14T01:52:40.297Z,1016.27
2016-09-14T01:53:40.313Z,1016.26
2016-09-14T01:54:40.337Z,1016.25
2016-09-14T01:55:40.370Z,1016.31
2016-09-14T01:56:40.387Z,1016.28
2016-09-14T01:57:40.411Z,1016.27
2016-09-14T01:58:40.437Z,1016.26
2016-09-14T01:59:40.465Z,1016.26
2016-09-14T02:00:40.531Z,1016.24
2016-09-14T02:01:40.507Z,1016.23
2016-09-14T02:02:40.533Z,1016.26
2016-09-14T02:03:40.558Z,1016.27
2016-09-14T02:04:40.585Z,1016.24
2016-09-14T02:05:40.603Z,1016.23
2016-09-14T02:06:40.623Z,1016.21
2016-09-14T02:07:40.654Z,1016.24
2016-09-14T02:08:40.677Z,1016.23
2016-09-14T02:09:40.697Z,1016.24
2016-09-14T02:10:40.723Z,1016.24
2016-09-14T02:11:40.741Z,1016.22
2016-09-14T02:12:40.777Z,1016.2
2016-09-14T02:13:40.791Z,1016.22
2016-09-14T02:14:40.824Z,1016.22
2016-09-14T02:15:40.842Z,1016.18
2016-09-14T02:16:40.869Z,1016.2
2016-09-14T02:17:40.883Z,1016.17
2016-09-14T02:18:40.918Z,1016.15
2016-09-14T02:19:40.939Z,1016.16
2016-09-14T02:20:40.965Z,1016.15
2016-09-14T02:21:40.986Z,1016.17
2016-09-14T02:22:41.010Z,1016.15
2016-09-14T02:23:41.030Z,1016.15
2016-09-14T02:24:41.056Z,1016.16
2016-09-14T02:25:41.085Z,1016.13
2016-09-14T02:26:41.104Z,1016.13
2016-09-14T02:27:41.135Z,1016.16
2016-09-14T02:28:41.157Z,1016.18
2016-09-14T02:29:41.180Z,1016.17
2016-09-14T02:30:41.202Z,1016.15
2016-09-14T02:31:41.224Z,1016.16
2016-09-14T02:32:41.249Z,1016.16
2016-09-14T02:33:41.272Z,1016.19
2016-09-14T02:34:41.294Z,1016.19
2016-09-14T02:35:41.319Z,1016.15
2016-09-14T02:36:41.342Z,1016.14
2016-09-14T02:37:41.367Z,1016.16
2016-09-14T02:38:41.385Z,1016.17
2016-09-14T02:39:41.411Z,1016.16
2016-09-14T02:40:41.433Z,1016.12
2016-09-14T02:41:41.516Z,1016.14
2016-09-14T02:42:41.487Z,1016.15
2016-09-14T02:43:41.505Z,1016.14
2016-09-14T02:44:41.537Z,1016.12
2016-09-14T02:45:41.558Z,1016.11
2016-09-14T02:46:41.579Z,1016.09
2016-09-14T02:47:41.606Z,1016.06
2016-09-14T02:48:41.631Z,1016.1
2016-09-14T02:49:41.652Z,1016.08
2016-09-14T02:50:41.767Z,1016.11
2016-09-14T02:51:41.708Z,1016.08
2016-09-14T02:52:41.725Z,1016.09
2016-09-14T02:53:41.745Z,1016.1
2016-09-14T02:54:41.775Z,1016.12
2016-09-14T02:55:41.806Z,1016.1
2016-09-14T02:56:41.817Z,1016.1
2016-09-14T02:57:41.846Z,1016.12
2016-09-14T02:58:41.869Z,1016.1
2016-09-14T02:59:41.895Z,1016.14
2016-09-14T03:00:41.910Z,1016.16
2016-09-14T03:01:41.933Z,1016.1
2016-09-14T03:02:41.963Z,1016.12
2016-09-14T03:03:42.036Z,1016.14
2016-09-14T03:04:42.012Z,1016.13
2016-09-14T03:05:42.036Z,1016.16
2016-09-14T03:06:42.057Z,1016.13
2016-09-14T03:07:42.087Z,1016.17
2016-09-14T03:08:42.114Z,1016.12
2016-09-14T03:09:42.125Z,1016.15
2016-09-14T03:10:42.156Z,1016.16
2016-09-14T03:11:42.167Z,1016.14
2016-09-14T03:12:42.203Z,1016.14
2016-09-14T03:13:42.221Z,1016.12
2016-09-14T03:14:42.295Z,1016.11
2016-09-14T03:15:42.269Z,1016.17
2016-09-14T03:16:42.295Z,1016.11
2016-09-14T03:17:42.313Z,1016.11
2016-09-14T03:18:42.342Z,1016.11
2016-09-14T03:19:42.365Z,1016.13
2016-09-14T03:20:42.386Z,1016.11
2016-09-14T03:21:42.412Z,1016.07
2016-09-14T03:22:42.434Z,1016.12
2016-09-14T03:23:42.458Z,1016.13
2016-09-14T03:24:42.488Z,1016.13
2016-09-14T03:25:42.507Z,1016.11
2016-09-14T03:26:42.525Z,1016.13
2016-09-14T03:27:42.559Z,1016.1
2016-09-14T03:28:42.578Z,1016.11
2016-09-14T03:29:42.594Z,1016.11
2016-09-14T03:30:42.630Z,1016.13
2016-09-14T03:31:42.656Z,1016.1
2016-09-14T03:32:42.675Z,1016.15
2016-09-14T03:33:42.693Z,1016.13
2016-09-14T03:34:42.722Z,1016.1
2016-09-14T03:35:42.739Z,1016.14
2016-09-14T03:36:42.764Z,1016.14
2016-09-14T03:37:42.782Z,1016.16
2016-09-14T03:38:42.818Z,1016.12
2016-09-14T03:39:42.835Z,1016.15
2016-09-14T03:40:42.864Z,1016.16
2016-09-14T03:41:42.885Z,1016.12
2016-09-14T03:42:42.911Z,1016.13
2016-09-14T03:43:42.930Z,1016.16
2016-09-14T03:44:42.963Z,1016.17
2016-09-14T03:45:42.977Z,1016.19
2016-09-14T03:46:43.005Z,1016.15
2016-09-14T03:47:43.021Z,1016.16
2016-09-14T03:48:43.047Z,1016.17
2016-09-14T03:49:43.076Z,1016.18
2016-09-14T03:50:43.090Z,1016.16
2016-09-14T03:51:43.112Z,1016.15
2016-09-14T03:52:43.139Z,1016.14
2016-09-14T03:53:43.165Z,1016.14
2016-09-14T03:54:43.181Z,1016.13
2016-09-14T03:55:43.210Z,1016.18
2016-09-14T03:56:43.236Z,1016.2
2016-09-14T03:57:43.251Z,1016.14
2016-09-14T03:58:43.281Z,1016.21
2016-09-14T03:59:43.303Z,1016.21
2016-09-14T04:00:43.337Z,1016.21
2016-09-14T04:01:43.353Z,1016.22
2016-09-14T04:02:43.374Z,1016.23
2016-09-14T04:03:43.394Z,1016.19
2016-09-14T04:04:43.420Z,1016.22
2016-09-14T04:05:43.441Z,1016.22
2016-09-14T04:06:43.466Z,1016.25
2016-09-14T04:07:43.495Z,1016.2
2016-09-14T04:08:43.508Z,1016.19
2016-09-14T04:09:43.539Z,1016.15
2016-09-14T04:10:43.564Z,1016.16
2016-09-14T04:11:43.682Z,1016.14
2016-09-14T04:12:43.616Z,1016.16
2016-09-14T04:13:43.629Z,1016.17
2016-09-14T04:14:43.660Z,1016.16
2016-09-14T04:15:43.677Z,1016.15
2016-09-14T04:16:43.699Z,1016.15
2016-09-14T04:17:43.726Z,1016.19
2016-09-14T04:18:43.756Z,1016.18
2016-09-14T04:19:43.773Z,1016.17
2016-09-14T04:20:43.808Z,1016.17
2016-09-14T04:21:43.827Z,1016.2
2016-09-14T04:22:43.891Z,1016.16
2016-09-14T04:23:43.861Z,1016.18
2016-09-14T04:24:43.905Z,1016.17
2016-09-14T04:25:43.915Z,1016.23
2016-09-14T04:26:43.945Z,1016.17
2016-09-14T04:27:43.960Z,1016.21
2016-09-14T04:28:43.980Z,1016.17
2016-09-14T04:29:44.002Z,1016.2
2016-09-14T04:30:44.021Z,1016.18
2016-09-14T04:31:44.052Z,1016.2
2016-09-14T04:32:44.075Z,1016.18
2016-09-14T04:33:44.100Z,1016.21
2016-09-14T04:34:44.120Z,1016.19
2016-09-14T04:35:44.145Z,1016.19
2016-09-14T04:36:44.172Z,1016.18
2016-09-14T04:37:44.242Z,1016.17
2016-09-14T04:38:44.217Z,1016.18
2016-09-14T04:39:44.243Z,1016.17
2016-09-14T04:40:44.263Z,1016.19
2016-09-14T04:41:44.280Z,1016.17
2016-09-14T04:42:44.311Z,1016.19
2016-09-14T04:43:44.332Z,1016.17
2016-09-14T04:44:44.352Z,1016.19
2016-09-14T04:45:44.376Z,1016.21
2016-09-14T04:46:44.407Z,1016.22
2016-09-14T04:47:44.423Z,1016.22
2016-09-14T04:48:44.450Z,1016.24
2016-09-14T04:49:44.477Z,1016.26
2016-09-14T04:50:44.493Z,1016.22
2016-09-14T04:51:44.517Z,1016.24
2016-09-14T04:52:44.536Z,1016.23
2016-09-14T04:53:44.560Z,1016.26
2016-09-14T04:54:44.582Z,1016.26
2016-09-14T04:55:44.609Z,1016.27
2016-09-14T04:56:44.631Z,1016.25
2016-09-14T04:57:44.654Z,1016.27
2016-09-14T04:58:44.681Z,1016.29
2016-09-14T04:59:44.707Z,1016.3
2016-09-14T05:00:44.725Z,1016.31
2016-09-14T05:01:44.745Z,1016.32
2016-09-14T05:02:44.772Z,1016.32
2016-09-14T05:03:44.790Z,1016.31
2016-09-14T05:04:44.837Z,1016.36
2016-09-14T05:05:44.857Z,1016.31
2016-09-14T05:06:44.868Z,1016.31
2016-09-14T05:07:44.886Z,1016.32
2016-09-14T05:08:44.913Z,1016.34
2016-09-14T05:09:44.929Z,1016.3
2016-09-14T05:10:44.957Z,1016.29
2016-09-14T05:11:44.980Z,1016.31
2016-09-14T05:12:45.002Z,1016.29
2016-09-14T05:13:45.028Z,1016.29
2016-09-14T05:14:45.047Z,1016.31
2016-09-14T05:15:45.071Z,1016.27
2016-09-14T05:16:45.087Z,1016.28
2016-09-14T05:17:45.121Z,1016.31
2016-09-14T05:18:45.135Z,1016.33
2016-09-14T05:19:45.158Z,1016.31
2016-09-14T05:20:45.185Z,1016.34
2016-09-14T05:21:45.207Z,1016.36
2016-09-14T05:22:45.233Z,1016.35
2016-09-14T05:23:45.266Z,1016.37
2016-09-14T05:24:45.275Z,1016.31
2016-09-14T05:25:45.298Z,1016.36
2016-09-14T05:26:45.326Z,1016.31
2016-09-14T05:27:45.355Z,1016.38
2016-09-14T05:28:45.372Z,1016.32
2016-09-14T05:29:45.390Z,1016.34
2016-09-14T05:30:45.428Z,1016.38
2016-09-14T05:31:45.439Z,1016.37
2016-09-14T05:32:45.462Z,1016.37
2016-09-14T05:33:45.483Z,1016.36
2016-09-14T05:34:45.524Z,1016.33
2016-09-14T05:35:45.539Z,1016.4
2016-09-14T05:36:45.554Z,1016.41
2016-09-14T05:37:45.588Z,1016.36
2016-09-14T05:38:45.598Z,1016.36
2016-09-14T05:39:45.622Z,1016.35
2016-09-14T05:40:45.649Z,1016.36
2016-09-14T05:41:45.682Z,1016.37
2016-09-14T05:42:45.694Z,1016.36
2016-09-14T05:43:45.724Z,1016.37
2016-09-14T05:44:45.740Z,1016.38
2016-09-14T05:45:45.763Z,1016.38
2016-09-14T05:46:45.788Z,1016.38
2016-09-14T05:47:45.811Z,1016.4
2016-09-14T05:48:45.837Z,1016.45
2016-09-14T05:49:45.861Z,1016.49
2016-09-14T05:50:45.888Z,1016.46
2016-09-14T05:51:45.909Z,1016.48
2016-09-14T05:52:45.940Z,1016.5
2016-09-14T05:53:45.957Z,1016.56
2016-09-14T05:54:45.993Z,1016.52
2016-09-14T05:55:45.999Z,1016.56
2016-09-14T05:56:46.025Z,1016.61
2016-09-14T05:57:46.047Z,1016.6
2016-09-14T05:58:46.070Z,1016.59
2016-09-14T05:59:46.096Z,1016.58
2016-09-14T06:00:46.120Z,1016.58
2016-09-14T06:01:46.147Z,1016.59
2016-09-14T06:02:46.166Z,1016.58
2016-09-14T06:03:46.197Z,1016.61
2016-09-14T06:04:46.217Z,1016.66
2016-09-14T06:05:46.244Z,1016.67
2016-09-14T06:06:46.263Z,1016.71
2016-09-14T06:07:46.300Z,1016.7
2016-09-14T06:08:46.326Z,1016.71
2016-09-14T06:09:46.340Z,1016.69
2016-09-14T06:10:46.375Z,1016.74
2016-09-14T06:11:46.408Z,1016.73
2016-09-14T06:12:46.429Z,1016.72
2016-09-14T06:13:46.453Z,1016.73
2016-09-14T06:14:46.476Z,1016.76
2016-09-14T06:15:46.509Z,1016.8
2016-09-14T06:16:46.530Z,1016.74
2016-09-14T06:17:46.568Z,1016.73
2016-09-14T06:18:46.597Z,1016.74
2016-09-14T06:19:46.628Z,1016.7
2016-09-14T06:20:46.640Z,1016.69
2016-09-14T06:21:46.674Z,1016.67
2016-09-14T06:22:46.698Z,1016.65
2016-09-14T06:23:46.725Z,1016.71
2016-09-14T06:24:46.750Z,1016.71
2016-09-14T06:25:46.782Z,1016.69
2016-09-14T06:26:46.813Z,1016.71
2016-09-14T06:27:46.838Z,1016.71
2016-09-14T06:28:46.910Z,1016.72
2016-09-14T06:29:46.893Z,1016.71
2016-09-14T06:30:46.928Z,1016.71
2016-09-14T06:31:46.956Z,1016.7
2016-09-14T06:32:46.976Z,1016.74
2016-09-14T06:33:47.010Z,1016.72
2016-09-14T06:34:47.036Z,1016.75
2016-09-14T06:35:47.064Z,1016.76
2016-09-14T06:36:47.095Z,1016.76
2016-09-14T06:37:47.124Z,1016.72
2016-09-14T06:38:47.145Z,1016.73
2016-09-14T06:39:47.180Z,1016.75
2016-09-14T06:40:47.208Z,1016.72
2016-09-14T06:41:47.239Z,1016.73
2016-09-14T06:42:47.264Z,1016.77
2016-09-14T06:43:47.292Z,1016.73
2016-09-14T06:44:47.325Z,1016.75
2016-09-14T06:45:47.367Z,1016.79
2016-09-14T06:46:47.390Z,1016.79
2016-09-14T06:47:47.418Z,1016.81
2016-09-14T06:48:47.444Z,1016.79
2016-09-14T06:49:47.479Z,1016.86
2016-09-14T06:50:47.498Z,1016.81
2016-09-14T06:51:47.534Z,1016.82
2016-09-14T06:52:47.559Z,1016.84
2016-09-14T06:53:47.588Z,1016.85
2016-09-14T06:54:47.616Z,1016.85
2016-09-14T06:55:47.655Z,1016.78
2016-09-14T06:56:47.678Z,1016.79
2016-09-14T06:57:47.711Z,1016.81
2016-09-14T06:58:47.788Z,1016.79
2016-09-14T06:59:47.762Z,1016.74
2016-09-14T07:00:47.797Z,1016.78
2016-09-14T07:01:47.826Z,1016.8
2016-09-14T07:02:47.848Z,1016.75
2016-09-14T07:03:47.886Z,1016.81
2016-09-14T07:04:47.917Z,1016.8
2016-09-14T07:05:47.948Z,1016.75
2016-09-14T07:06:47.980Z,1016.84
2016-09-14T07:07:48.106Z,1016.82
2016-09-14T07:08:48.040Z,1016.8
2016-09-14T07:09:48.068Z,1016.81
2016-09-14T07:10:48.095Z,1016.81
2016-09-14T07:11:48.128Z,1016.82
2016-09-14T07:12:48.152Z,1016.84
2016-09-14T07:13:48.183Z,1016.88
2016-09-14T07:14:48.205Z,1016.91
2016-09-14T07:15:48.239Z,1016.92
2016-09-14T07:16:48.270Z,1016.95
2016-09-14T07:17:48.310Z,1017
2016-09-14T07:18:48.330Z,1016.98
2016-09-14T07:19:48.360Z,1017.02
2016-09-14T07:20:48.391Z,1016.97
2016-09-14T07:21:48.427Z,1016.98
2016-09-14T07:22:48.456Z,1016.96
2016-09-14T07:23:48.478Z,1016.95
2016-09-14T07:24:48.522Z,1016.95
2016-09-14T07:25:48.541Z,1016.89
2016-09-14T07:26:48.562Z,1016.91
2016-09-14T07:27:48.602Z,1016.91
2016-09-14T07:28:48.629Z,1016.86
2016-09-14T07:29:48.655Z,1016.84
2016-09-14T07:30:48.695Z,1016.87
2016-09-14T07:31:48.719Z,1016.8
2016-09-14T07:32:48.748Z,1016.85
2016-09-14T07:33:48.777Z,1016.79
2016-09-14T07:34:48.807Z,1016.8
2016-09-14T07:35:48.841Z,1016.83
2016-09-14T07:36:48.869Z,1016.77
2016-09-14T07:37:48.898Z,1016.8
2016-09-14T07:38:48.920Z,1016.79
2016-09-14T07:39:48.961Z,1016.88
2016-09-14T07:40:48.979Z,1016.86
2016-09-14T07:41:49.010Z,1016.82
2016-09-14T07:42:49.036Z,1016.87
2016-09-14T07:43:49.076Z,1016.77
2016-09-14T07:44:49.093Z,1016.9
2016-09-14T07:45:49.119Z,1016.9
2016-09-14T07:46:49.148Z,1016.84
2016-09-14T07:47:49.171Z,1016.89
2016-09-14T07:48:49.206Z,1016.91
2016-09-14T07:49:49.243Z,1016.91
2016-09-14T07:50:49.263Z,1016.91
2016-09-14T07:51:49.287Z,1016.88
2016-09-14T07:52:49.313Z,1016.88
2016-09-14T07:53:49.340Z,1016.9
2016-09-14T07:54:49.369Z,1016.95
2016-09-14T07:55:49.400Z,1016.94
2016-09-14T07:56:49.420Z,1016.98
2016-09-14T07:57:49.449Z,1016.94
2016-09-14T07:58:49.524Z,1016.97
2016-09-14T07:59:49.501Z,1017
2016-09-14T08:00:49.528Z,1016.97
2016-09-14T08:01:49.552Z,1016.98
2016-09-14T08:02:49.586Z,1016.96
2016-09-14T08:03:49.605Z,1016.98
2016-09-14T08:04:49.635Z,1017
2016-09-14T08:05:49.665Z,1016.98
2016-09-14T08:06:49.688Z,1016.98
2016-09-14T08:07:49.722Z,1017.02
2016-09-14T08:08:49.740Z,1016.98
2016-09-14T08:09:49.765Z,1017.04
2016-09-14T08:10:49.794Z,1017.03
2016-09-14T08:11:49.831Z,1017.05
2016-09-14T08:12:49.848Z,1017.02
2016-09-14T08:13:49.881Z,1017.06
2016-09-14T08:14:49.911Z,1017.02
2016-09-14T08:15:49.926Z,1017
2016-09-14T08:16:49.955Z,1016.99
2016-09-14T08:17:49.992Z,1016.99
2016-09-14T08:18:50.008Z,1017.02
2016-09-14T08:19:50.038Z,1016.97
2016-09-14T08:20:50.117Z,1016.96
2016-09-14T08:21:50.100Z,1016.99
2016-09-14T08:22:50.115Z,1016.97
2016-09-14T08:23:50.143Z,1016.96
2016-09-14T08:24:50.176Z,1016.97
2016-09-14T08:25:50.200Z,1017.01
2016-09-14T08:26:50.223Z,1016.96
2016-09-14T08:27:50.245Z,1016.93
2016-09-14T08:28:50.377Z,1016.95
2016-09-14T08:29:50.302Z,1016.9
2016-09-14T08:30:50.328Z,1016.9
2016-09-14T08:31:50.368Z,1016.89
2016-09-14T08:32:50.380Z,1016.89
2016-09-14T08:33:50.406Z,1016.92
2016-09-14T08:34:50.437Z,1016.9
2016-09-14T08:35:50.459Z,1016.89
2016-09-14T08:36:50.488Z,1016.89
2016-09-14T08:37:50.516Z,1016.87
2016-09-14T08:38:50.539Z,1016.84
2016-09-14T08:39:50.569Z,1016.81
2016-09-14T08:40:50.795Z,1016.76
2016-09-14T08:41:50.770Z,1016.83
2016-09-14T08:42:50.795Z,1016.81
2016-09-14T08:43:50.816Z,1016.83
2016-09-14T08:44:50.793Z,1016.76
2016-09-14T08:45:50.829Z,1016.74
2016-09-14T08:46:50.802Z,1016.73
2016-09-14T08:47:50.824Z,1016.75
2016-09-14T08:48:50.808Z,1016.72
2016-09-14T08:49:50.881Z,1016.72
2016-09-14T08:50:50.862Z,1016.7
2016-09-14T08:51:50.888Z,1016.67
2016-09-14T08:52:50.919Z,1016.7
2016-09-14T08:53:50.948Z,1016.72
2016-09-14T08:54:50.966Z,1016.7
2016-09-14T08:55:50.994Z,1016.68
2016-09-14T08:56:51.021Z,1016.66
2016-09-14T08:57:51.047Z,1016.66
2016-09-14T08:58:51.073Z,1016.72
2016-09-14T08:59:51.097Z,1016.67
2016-09-14T09:00:51.130Z,1016.68
2016-09-14T09:01:51.153Z,1016.68
2016-09-14T09:02:51.184Z,1016.64
2016-09-14T09:03:51.412Z,1016.71
2016-09-14T09:04:51.237Z,1016.67
2016-09-14T09:05:51.322Z,1016.67
2016-09-14T09:06:51.296Z,1016.62
2016-09-14T09:07:51.317Z,1016.64
2016-09-14T09:08:51.350Z,1016.61
2016-09-14T09:09:51.374Z,1016.63
2016-09-14T09:10:51.398Z,1016.58
2016-09-14T09:11:51.430Z,1016.57
2016-09-14T09:12:51.456Z,1016.61
2016-09-14T09:13:51.480Z,1016.64
2016-09-14T09:14:51.508Z,1016.66
2016-09-14T09:15:51.532Z,1016.68
2016-09-14T09:16:51.565Z,1016.65
2016-09-14T09:17:51.589Z,1016.69
2016-09-14T09:18:51.616Z,1016.7
2016-09-14T09:19:51.639Z,1016.72
2016-09-14T09:20:51.673Z,1016.74
2016-09-14T09:21:51.696Z,1016.72
2016-09-14T09:22:51.760Z,1016.74
2016-09-14T09:23:51.758Z,1016.78
2016-09-14T09:24:51.773Z,1016.82
2016-09-14T09:25:51.822Z,1016.77
2016-09-14T09:26:51.839Z,1016.84
2016-09-14T09:27:51.866Z,1016.83
2016-09-14T09:28:51.938Z,1016.82
2016-09-14T09:29:51.913Z,1016.81
2016-09-14T09:30:51.955Z,1016.81
2016-09-14T09:31:51.981Z,1016.8
2016-09-14T09:32:51.995Z,1016.79
2016-09-14T09:33:52.025Z,1016.79
2016-09-14T09:34:52.049Z,1016.82
2016-09-14T09:35:52.088Z,1016.77
2016-09-14T09:36:52.106Z,1016.77
2016-09-14T09:37:52.131Z,1016.77
2016-09-14T09:38:52.168Z,1016.75
2016-09-14T09:39:52.185Z,1016.8
2016-09-14T09:40:52.217Z,1016.76
2016-09-14T09:41:52.238Z,1016.79
2016-09-14T09:42:52.272Z,1016.8
2016-09-14T09:43:52.293Z,1016.76
2016-09-14T09:44:52.389Z,1016.8
2016-09-14T09:45:52.353Z,1016.77
2016-09-14T09:46:52.380Z,1016.79
2016-09-14T09:47:52.418Z,1016.77
2016-09-14T09:48:52.433Z,1016.8
2016-09-14T09:49:52.469Z,1016.75
2016-09-14T09:50:52.485Z,1016.79
2016-09-14T09:51:52.525Z,1016.78
2016-09-14T09:52:52.542Z,1016.83
2016-09-14T09:53:52.573Z,1016.79
2016-09-14T09:54:52.613Z,1016.82
2016-09-14T09:55:52.621Z,1016.8
2016-09-14T09:56:52.656Z,1016.81
2016-09-14T09:57:52.682Z,1016.83
2016-09-14T09:58:52.711Z,1016.79
2016-09-14T09:59:52.743Z,1016.83
2016-09-14T10:00:52.770Z,1016.82
2016-09-14T10:01:52.795Z,1016.84
2016-09-14T10:02:52.836Z,1016.79
2016-09-14T10:03:52.854Z,1016.84
2016-09-14T10:04:52.876Z,1016.79
2016-09-14T10:05:52.905Z,1016.81
2016-09-14T10:06:52.937Z,1016.83
2016-09-14T10:07:52.968Z,1016.82
2016-09-14T10:08:52.994Z,1016.82
2016-09-14T10:09:53.012Z,1016.78
2016-09-14T10:10:53.037Z,1016.82
2016-09-14T10:11:53.072Z,1016.83
2016-09-14T10:12:53.100Z,1016.79
2016-09-14T10:13:53.129Z,1016.79
2016-09-14T10:14:53.155Z,1016.79
2016-09-14T10:15:53.188Z,1016.78
2016-09-14T10:16:53.207Z,1016.81
2016-09-14T10:17:53.241Z,1016.77
2016-09-14T10:18:53.261Z,1016.79
2016-09-14T10:19:53.298Z,1016.77
2016-09-14T10:20:53.329Z,1016.81
2016-09-14T10:21:53.350Z,1016.77
2016-09-14T10:22:53.387Z,1016.75
2016-09-14T10:23:53.413Z,1016.74
2016-09-14T10:24:53.448Z,1016.73
2016-09-14T10:25:53.466Z,1016.68
2016-09-14T10:26:53.493Z,1016.69
2016-09-14T10:27:53.520Z,1016.71
2016-09-14T10:28:53.601Z,1016.69
2016-09-14T10:29:53.587Z,1016.69
2016-09-14T10:30:53.607Z,1016.69
2016-09-14T10:31:53.634Z,1016.7
2016-09-14T10:32:53.658Z,1016.68
2016-09-14T10:33:53.686Z,1016.67
2016-09-14T10:34:53.714Z,1016.67
2016-09-14T10:35:53.753Z,1016.68
2016-09-14T10:36:53.782Z,1016.67
2016-09-14T10:37:53.805Z,1016.6
2016-09-14T10:38:53.832Z,1016.69
2016-09-14T10:39:53.864Z,1016.61
2016-09-14T10:40:53.886Z,1016.65
2016-09-14T10:41:53.912Z,1016.61
2016-09-14T10:42:53.939Z,1016.6
2016-09-14T10:43:53.973Z,1016.61
2016-09-14T10:44:54.003Z,1016.57
2016-09-14T10:45:54.027Z,1016.62
2016-09-14T10:46:54.051Z,1016.57
2016-09-14T10:47:54.080Z,1016.59
2016-09-14T10:48:54.126Z,1016.58
2016-09-14T10:49:54.152Z,1016.54
2016-09-14T10:50:54.160Z,1016.5
2016-09-14T10:51:54.203Z,1016.55
2016-09-14T10:52:54.223Z,1016.56
2016-09-14T10:53:54.258Z,1016.53
2016-09-14T10:54:54.283Z,1016.52
2016-09-14T10:55:54.318Z,1016.52
2016-09-14T10:56:54.337Z,1016.49
2016-09-14T10:57:54.418Z,1016.51
2016-09-14T10:58:54.392Z,1016.55
2016-09-14T10:59:54.421Z,1016.55
2016-09-14T11:00:54.460Z,1016.52
2016-09-14T11:01:54.487Z,1016.54
2016-09-14T11:02:54.514Z,1016.57
2016-09-14T11:03:54.543Z,1016.54
2016-09-14T11:04:54.568Z,1016.53
2016-09-14T11:05:54.593Z,1016.53
2016-09-14T11:06:54.625Z,1016.55
2016-09-14T11:07:54.654Z,1016.58
2016-09-14T11:08:54.678Z,1016.51
2016-09-14T11:09:54.710Z,1016.52
2016-09-14T11:10:54.730Z,1016.5
2016-09-14T11:11:54.771Z,1016.53
2016-09-14T11:12:54.795Z,1016.49
2016-09-14T11:13:54.814Z,1016.41
2016-09-14T11:14:54.850Z,1016.46
2016-09-14T11:15:54.883Z,1016.42
2016-09-14T11:16:54.908Z,1016.39
2016-09-14T11:17:54.932Z,1016.46
2016-09-14T11:18:54.963Z,1016.53
2016-09-14T11:19:54.990Z,1016.44
2016-09-14T11:20:55.022Z,1016.45
2016-09-14T11:21:55.053Z,1016.43
2016-09-14T11:22:55.080Z,1016.43
2016-09-14T11:23:55.116Z,1016.44
2016-09-14T11:24:55.132Z,1016.47
2016-09-14T11:25:55.164Z,1016.48
2016-09-14T11:26:55.192Z,1016.45
2016-09-14T11:27:55.227Z,1016.48
2016-09-14T11:28:55.355Z,1016.49
2016-09-14T11:29:55.278Z,1016.51
2016-09-14T11:30:55.300Z,1016.5
2016-09-14T11:31:55.337Z,1016.52
2016-09-14T11:32:55.372Z,1016.48
2016-09-14T11:33:55.396Z,1016.44
2016-09-14T11:34:55.420Z,1016.44
2016-09-14T11:35:55.457Z,1016.39
2016-09-14T11:36:55.487Z,1016.4
2016-09-14T11:37:55.513Z,1016.43
2016-09-14T11:38:55.547Z,1016.44
2016-09-14T11:39:55.574Z,1016.44
2016-09-14T11:40:55.591Z,1016.41
2016-09-14T11:41:55.620Z,1016.43
2016-09-14T11:42:55.657Z,1016.34
2016-09-14T11:43:55.680Z,1016.33
2016-09-14T11:44:55.713Z,1016.34
2016-09-14T11:45:55.742Z,1016.32
2016-09-14T11:46:55.768Z,1016.33
2016-09-14T11:47:55.795Z,1016.35
2016-09-14T11:48:55.875Z,1016.31
2016-09-14T11:49:55.853Z,1016.34
2016-09-14T11:50:55.886Z,1016.32
2016-09-14T11:51:55.917Z,1016.42
2016-09-14T11:52:55.944Z,1016.35
2016-09-14T11:53:55.974Z,1016.32
2016-09-14T11:54:56.003Z,1016.3
2016-09-14T11:55:56.039Z,1016.31
2016-09-14T11:56:56.064Z,1016.27
2016-09-14T11:57:56.125Z,1016.32
2016-09-14T11:58:56.114Z,1016.28
2016-09-14T11:59:56.143Z,1016.28
2016-09-14T12:00:56.175Z,1016.29
2016-09-14T12:01:56.206Z,1016.23
2016-09-14T12:02:56.231Z,1016.25
2016-09-14T12:03:56.260Z,1016.25
2016-09-14T12:04:56.288Z,1016.3
2016-09-14T12:05:56.319Z,1016.27
2016-09-14T12:06:56.364Z,1016.26
2016-09-14T12:07:56.386Z,1016.27
2016-09-14T12:08:56.461Z,1016.24